首页
METAR-TAF:

METAR-TAF

机场 :

Bluefields, 尼加拉瓜

纬度: 12-00N, 经度: 083-46W, 海拔: 5米

当前天气观测

该预报发布于1小时和19分钟前的15:00 UTC
风速8节,风向
温度 29°C
湿度 74%
气压 1013 hPa
能见度10公里或以上
多云层高于1700英尺

METAR: MNBL 171500Z 10008KT 9999 BKN017 29/24 Q1013

时间: 10:19 (16:19 UTC)

预报

该预报发布于18小时和29分钟前的21:50 UTC
预报有效从17日的 00点(UTC)到 17日的 24点(UTC)
风速8节,风向东转东北
能见度10公里或以上
多云层高于1700英尺
几率 30%
在之间 70和00点(UTC)
附近有, 雨

TAF: MNBL 162150Z 1700/1724 06008KT 9999 BKN017 PROB30 7000 VCRA

超过4000个机场的气象观测和天气预报(METAR&TAF报告)。

可查询的气象台以黄色和红色小点在地图上表示。

将鼠标移到小点上方,可查看气象台名称。

然后点击查看天气观测和预报。

如需切换地图:点击带黑十字的绿色按钮放大地图;点击带横线的绿色按钮缩小地图;或者点击绿色箭头查看邻近地区的地图。


METAR-TAF: